Time;durP1;ratioP1;P1;durP2;ratioP2;P2;SDS_P1;SDS_P2;PMS_P1;PMS_P2;Temp;Humidity;BMP_temperature;BMP_pressure;BME280_temperature;BME280_humidity;BME280_pressure;Samples;Min_cycle;Max_cycle;Signal;HPM_P1;HPM_P2
2022/08/06 00:02:24;;;;;;;3.90;1.80;;;;;;;10.91;100.00;101940.38;7383366;19;20405;-60
2022/08/06 00:05:01;;;;;;;3.50;1.87;;;;;;;10.88;100.00;101940.16;7390947;19;20386;-60
2022/08/06 00:07:34;;;;;;;2.93;1.60;;;;;;;10.93;100.00;101949.09;7383702;19;21193;-60
2022/08/06 00:10:16;;;;;;;5.00;1.47;;;;;;;10.86;100.00;101953.81;7388556;19;20484;-60
2022/08/06 00:12:46;;;;;;;3.07;1.40;;;;;;;10.89;100.00;101949.72;7381176;19;20430;-60
2022/08/06 00:15:17;;;;;;;3.83;1.90;;;;;;;11.05;100.00;101951.53;7390925;19;20452;-60
2022/08/06 00:18:07;;;;;;;4.97;1.57;;;;;;;10.87;100.00;101953.88;7381449;19;20422;-60
2022/08/06 00:20:43;;;;;;;3.73;2.20;;;;;;;11.14;100.00;101958.00;7388597;19;20413;-60
2022/08/06 00:23:14;;;;;;;4.33;2.07;;;;;;;10.99;100.00;101948.56;7383291;19;20427;-60
2022/08/06 00:25:46;;;;;;;6.20;1.67;;;;;;;10.81;100.00;101963.84;7398657;19;20402;-60
2022/08/06 00:28:22;;;;;;;5.80;1.83;;;;;;;10.78;100.00;101961.09;7390617;19;20409;-60
2022/08/06 00:31:01;;;;;;;5.63;2.00;;;;;;;10.78;100.00;101971.41;7397954;19;20476;-60
2022/08/06 00:33:41;;;;;;;3.53;1.70;;;;;;;10.69;100.00;101973.44;7391898;19;20423;-60
2022/08/06 00:36:29;;;;;;;4.50;1.70;;;;;;;10.64;100.00;101968.91;7398210;19;20395;-60
2022/08/06 00:39:04;;;;;;;4.00;1.97;;;;;;;10.63;100.00;101966.22;7388563;19;20416;-60
2022/08/06 00:41:38;;;;;;;3.50;1.63;;;;;;;10.58;100.00;101973.69;7397900;19;20385;-60
2022/08/06 00:44:11;;;;;;;4.20;1.63;;;;;;;10.57;100.00;101979.66;7390438;19;20410;-60
2022/08/06 00:46:43;;;;;;;3.93;2.03;;;;;;;10.62;100.00;101983.38;7401782;19;20920;-60
2022/08/06 00:49:13;;;;;;;5.43;1.70;;;;;;;10.80;100.00;101993.03;7389315;19;20491;-60
2022/08/06 00:52:06;;;;;;;4.47;1.70;;;;;;;10.66;100.00;101985.34;7392450;19;20726;-60
2022/08/06 00:54:36;;;;;;;5.50;1.73;;;;;;;10.63;100.00;101990.34;7396925;19;20908;-60
2022/08/06 00:57:07;;;;;;;4.87;1.77;;;;;;;10.59;100.00;101993.53;7388644;19;20410;-60
2022/08/06 00:59:40;;;;;;;4.27;1.60;;;;;;;10.55;100.00;102001.88;7395329;19;20433;-60
2022/08/06 01:02:12;;;;;;;9.37;1.97;;;;;;;10.49;100.00;102001.47;7391090;19;20388;-60
2022/08/06 01:04:43;;;;;;;2.57;1.50;;;;;;;10.48;100.00;102003.19;7396884;19;20389;-60
2022/08/06 01:07:16;;;;;;;7.27;2.00;;;;;;;10.51;100.00;102002.50;7391996;19;20469;-61
2022/08/06 01:09:51;;;;;;;65.13;31.00;;;;;;;10.56;100.00;101997.59;7396670;19;20467;-60
2022/08/06 01:12:27;;;;;;;86.03;40.03;;;;;;;10.65;100.00;101998.16;7389425;19;20415;-60
2022/08/06 01:15:03;;;;;;;54.20;25.20;;;;;;;10.64;100.00;102006.72;7396955;19;20388;-60
2022/08/06 01:17:51;;;;;;;15.10;7.90;;;;;;;10.56;100.00;102003.66;7389693;19;20440;-60
2022/08/06 01:20:36;;;;;;;10.67;4.50;;;;;;;10.64;100.00;102007.63;7394576;19;20764;-60
2022/08/06 01:23:41;;;;;;;14.03;5.87;;;;;;;10.66;100.00;102006.00;7389478;19;20417;-60
2022/08/06 01:26:39;;;;;;;19.60;10.00;;;;;;;10.63;100.00;102011.00;7397043;19;20401;-60
2022/08/06 01:29:12;;;;;;;6.10;3.50;;;;;;;10.62;100.00;102027.25;7387069;19;20774;-60
2022/08/06 01:31:47;;;;;;;7.50;3.93;;;;;;;10.62;100.00;102022.09;7396748;19;20388;-60
2022/08/06 01:34:23;;;;;;;5.97;2.47;;;;;;;10.58;100.00;102022.72;7388223;19;20417;-60
2022/08/06 01:37:04;;;;;;;4.80;2.43;;;;;;;10.53;100.00;102021.53;7386155;19;20934;-65
2022/08/06 01:39:35;;;;;;;4.13;2.40;;;;;;;10.44;100.00;102023.53;7394340;19;21081;-60
2022/08/06 01:42:26;;;;;;;7.07;2.50;;;;;;;10.42;100.00;102035.41;7380313;19;20747;-60
2022/08/06 01:45:14;;;;;;;10.50;2.10;;;;;;;10.37;100.00;102036.00;7396183;19;20436;-60
2022/08/06 01:47:48;;;;;;;7.03;2.20;;;;;;;10.42;100.00;102032.84;7389006;19;20408;-60
2022/08/06 01:50:27;;;;;;;5.17;2.37;;;;;;;10.30;100.00;102030.38;7393781;19;20971;-60
2022/08/06 01:53:00;;;;;;;5.73;2.00;;;;;;;10.17;100.00;102039.91;7388181;19;20428;-60
2022/08/06 01:55:31;;;;;;;3.80;2.20;;;;;;;10.13;100.00;102044.00;7396006;19;20465;-60
2022/08/06 01:58:30;;;;;;;4.93;1.97;;;;;;;10.18;100.00;102040.78;7386314;19;20795;-60
2022/08/06 02:01:05;;;;;;;5.83;2.63;;;;;;;10.21;100.00;102034.16;7395503;19;20916;-60
2022/08/06 02:03:39;;;;;;;4.87;2.03;;;;;;;10.38;100.00;102029.16;7388379;19;20451;-60
2022/08/06 02:06:24;;;;;;;4.80;2.20;;;;;;;10.32;100.00;102029.69;7397484;19;20402;-59
2022/08/06 02:08:59;;;;;;;4.10;2.70;;;;;;;10.29;100.00;102033.75;7388122;19;20457;-60
2022/08/06 02:11:53;;;;;;;6.80;2.30;;;;;;;10.12;100.00;102033.56;7395030;19;20393;-60
2022/08/06 02:14:37;;;;;;;4.33;2.10;;;;;;;10.12;100.00;102036.16;7394769;19;20428;-59
2022/08/06 02:17:17;;;;;;;7.33;2.13;;;;;;;10.12;100.00;102039.59;7388065;19;20414;-60
2022/08/06 02:20:08;;;;;;;5.63;2.90;;;;;;;10.04;100.00;102038.22;7393406;19;20400;-60
2022/08/06 02:22:58;;;;;;;4.13;2.30;;;;;;;10.05;100.00;102049.44;7387703;19;20420;-60
2022/08/06 02:25:28;;;;;;;4.03;1.97;;;;;;;10.01;100.00;102043.19;7394797;19;20391;-60
2022/08/06 02:28:00;;;;;;;3.70;2.40;;;;;;;10.03;100.00;102041.59;7386241;19;20427;-60
2022/08/06 02:30:36;;;;;;;4.70;3.10;;;;;;;9.96;100.00;102039.44;7392978;19;20423;-60
2022/08/06 02:33:14;;;;;;;6.87;2.40;;;;;;;9.98;100.00;102038.75;7386776;19;20421;-60
2022/08/06 02:35:50;;;;;;;5.40;2.80;;;;;;;9.99;100.00;102044.75;7394684;19;20393;-60
2022/08/06 02:38:25;;;;;;;7.77;2.50;;;;;;;9.91;100.00;102044.28;7385301;19;20436;-60
2022/08/06 02:41:00;;;;;;;5.63;2.77;;;;;;;9.99;100.00;102045.66;7393950;19;20932;-60
2022/08/06 02:43:35;;;;;;;7.43;2.60;;;;;;;9.90;100.00;102055.38;7389145;19;20448;-60
2022/08/06 02:46:11;;;;;;;6.27;2.53;;;;;;;9.87;100.00;102055.19;7394535;19;20812;-60
2022/08/06 02:48:48;;;;;;;6.17;2.70;;;;;;;10.01;100.00;102058.69;7385621;19;20439;-59
2022/08/06 02:51:21;;;;;;;7.13;3.30;;;;;;;10.05;100.00;102060.63;7393754;19;20928;-60
2022/08/06 02:54:15;;;;;;;6.93;2.70;;;;;;;9.92;100.00;102061.53;7386793;19;20411;-60
2022/08/06 02:56:47;;;;;;;6.60;3.27;;;;;;;9.85;100.00;102062.81;7393813;19;20782;-60
2022/08/06 02:59:20;;;;;;;3.63;2.37;;;;;;;9.99;100.00;102057.66;7388540;19;20459;-61
2022/08/06 03:01:57;;;;;;;4.27;2.70;;;;;;;9.82;100.00;102064.31;7395307;19;20404;-60
2022/08/06 03:04:31;;;;;;;6.37;3.00;;;;;;;9.78;100.00;102075.19;7393667;19;20439;-59
2022/08/06 03:07:06;;;;;;;6.33;3.17;;;;;;;9.77;100.00;102073.41;7386716;19;20379;-60
2022/08/06 03:09:55;;;;;;;6.73;3.47;;;;;;;9.88;100.00;102071.56;7391777;19;20963;-60
2022/08/06 03:12:26;;;;;;;6.53;3.50;;;;;;;9.69;100.00;102072.91;7385008;19;20400;-60
2022/08/06 03:15:01;;;;;;;6.60;4.20;;;;;;;9.72;100.00;102086.00;7393366;19;20418;-60
2022/08/06 03:17:39;;;;;;;9.23;3.13;;;;;;;9.63;100.00;102083.69;7384852;19;20415;-60
2022/08/06 03:20:13;;;;;;;10.23;3.07;;;;;;;9.78;100.00;102076.09;7390822;19;20833;-60
2022/08/06 03:22:48;;;;;;;4.00;3.23;;;;;;;9.72;100.00;102080.84;7385960;19;20407;-60
2022/08/06 03:25:20;;;;;;;6.67;3.93;;;;;;;9.69;100.00;102080.66;7392777;19;20385;-60
2022/08/06 03:27:54;;;;;;;5.93;3.30;;;;;;;9.59;100.00;102080.03;7384220;19;21053;-60
2022/08/06 03:30:31;;;;;;;4.27;3.07;;;;;;;9.62;100.00;102091.31;7391211;19;20428;-60
2022/08/06 03:33:04;;;;;;;8.50;3.53;;;;;;;9.66;100.00;102080.44;7385815;19;20408;-60
2022/08/06 03:35:59;;;;;;;7.17;3.47;;;;;;;9.57;100.00;102089.34;7393373;19;20396;-59
2022/08/06 03:38:30;;;;;;;4.33;3.10;;;;;;;9.59;100.00;102090.34;7386283;19;20446;-60
2022/08/06 03:41:02;;;;;;;5.20;3.53;;;;;;;9.69;100.00;102091.84;7392429;19;20400;-60
2022/08/06 03:43:32;;;;;;;8.20;3.30;;;;;;;9.64;100.00;102097.50;7385079;19;20411;-60
2022/08/06 03:46:30;;;;;;;4.47;3.40;;;;;;;9.62;100.00;102099.03;7393169;19;20396;-60
2022/08/06 03:49:01;;;;;;;7.67;3.20;;;;;;;9.62;100.00;102104.19;7383586;19;20425;-60
2022/08/06 03:51:38;;;;;;;5.27;3.27;;;;;;;9.54;100.00;102107.16;7391981;19;20402;-60
2022/08/06 03:54:25;;;;;;;3.87;2.93;;;;;;;9.55;100.00;102114.09;7386216;19;20423;-60
2022/08/06 03:57:03;;;;;;;5.93;2.80;;;;;;;9.44;100.00;102121.09;7392041;19;20393;-63
2022/08/06 03:59:40;;;;;;;4.20;2.77;;;;;;;9.47;100.00;102120.41;7393347;19;20424;-60
2022/08/06 04:02:12;;;;;;;6.83;3.53;;;;;;;9.47;100.00;102116.97;7393040;19;20403;-60
2022/08/06 04:05:02;;;;;;;4.83;3.30;;;;;;;9.49;100.00;102118.81;7400292;19;20384;-60
2022/08/06 04:07:37;;;;;;;11.03;3.60;;;;;;;9.47;100.00;102119.53;7393563;19;20487;-59
2022/08/06 04:10:27;;;;;;;10.23;3.20;;;;;;;9.49;100.00;102123.97;7399763;19;20431;-60
2022/08/06 04:13:07;;;;;;;11.93;6.30;;;;;;;9.62;100.00;102129.97;7390479;19;20411;-60
2022/08/06 04:15:58;;;;;;;9.17;4.77;;;;;;;9.70;100.00;102133.97;7398937;19;20740;-60
2022/08/06 04:18:33;;;;;;;30.90;16.07;;;;;;;9.88;100.00;102133.44;7390441;19;20487;-60
2022/08/06 04:21:19;;;;;;;15.30;6.73;;;;;;;9.90;100.00;102130.13;7398914;19;20436;-60
2022/08/06 04:24:11;;;;;;;5.10;3.27;;;;;;;9.80;100.00;102138.06;7391136;19;20430;-60
2022/08/06 04:26:41;;;;;;;9.00;3.97;;;;;;;9.76;100.00;102142.13;7398985;19;20384;-60
2022/08/06 04:29:17;;;;;;;4.90;3.27;;;;;;;9.63;100.00;102148.13;7389783;19;20419;-60
2022/08/06 04:31:49;;;;;;;9.47;3.33;;;;;;;9.62;100.00;102153.16;7398429;19;20407;-60
2022/08/06 04:34:39;;;;;;;3.67;2.63;;;;;;;9.58;100.00;102160.69;7397663;19;20944;-59
2022/08/06 04:37:29;;;;;;;3.73;3.27;;;;;;;9.62;100.00;102158.31;7391035;19;20415;-59
2022/08/06 04:40:13;;;;;;;5.43;3.40;;;;;;;9.73;100.00;102157.38;7395437;19;20430;-60
2022/08/06 04:42:44;;;;;;;5.70;2.80;;;;;;;9.76;100.00;102162.75;7390163;19;20473;-60
2022/08/06 04:45:14;;;;;;;11.33;5.77;;;;;;;9.76;100.00;102162.75;7398321;19;20388;-60
2022/08/06 04:48:05;;;;;;;7.20;3.50;;;;;;;9.80;100.00;102177.59;7391214;19;20453;-60
2022/08/06 04:50:37;;;;;;;6.10;3.47;;;;;;;9.82;100.00;102182.88;7396129;19;20416;-60
2022/08/06 04:53:08;;;;;;;4.37;2.93;;;;;;;9.86;100.00;102180.59;7393512;19;20494;-60
2022/08/06 04:55:43;;;;;;;4.07;3.13;;;;;;;9.87;100.00;102189.25;7402217;19;20379;-60
2022/08/06 04:58:31;;;;;;;4.43;2.87;;;;;;;9.91;100.00;102200.66;7389931;19;20408;-59
2022/08/06 05:01:02;;;;;;;8.10;3.23;;;;;;;10.01;100.00;102197.91;7395175;19;20391;-60
2022/08/06 05:03:39;;;;;;;3.50;2.70;;;;;;;10.02;100.00;102210.00;7388079;19;20425;-59
2022/08/06 05:06:36;;;;;;;4.20;2.83;;;;;;;10.03;100.00;102206.63;7397983;19;20386;-60
2022/08/06 05:09:06;;;;;;;6.97;3.37;;;;;;;10.10;100.00;102203.66;7387991;19;20407;-59
2022/08/06 05:11:55;;;;;;;7.37;3.10;;;;;;;10.21;100.00;102211.25;7397090;19;20426;-60
2022/08/06 05:14:32;;;;;;;5.10;3.20;;;;;;;10.29;100.00;102220.38;7396603;19;20433;-60
2022/08/06 05:17:04;;;;;;;6.20;3.20;;;;;;;10.39;100.00;102224.44;7391128;19;20398;-60
2022/08/06 05:19:41;;;;;;;10.93;3.07;;;;;;;10.52;100.00;102233.94;7394899;19;21484;-60
2022/08/06 05:22:11;;;;;;;5.50;3.43;;;;;;;10.66;100.00;102237.41;7390276;19;21068;-60
2022/08/06 05:24:48;;;;;;;14.50;3.47;;;;;;;10.78;100.00;102245.06;7397458;19;20484;-60
2022/08/06 05:27:33;;;;;;;4.50;2.67;;;;;;;10.89;100.00;102257.00;7389781;19;20503;-60
2022/08/06 05:30:23;;;;;;;4.43;2.80;;;;;;;10.99;100.00;102267.91;7394319;19;20437;-60
2022/08/06 05:32:58;;;;;;;3.63;2.40;;;;;;;11.17;100.00;102274.25;7390230;19;20424;-60
2022/08/06 05:35:30;;;;;;;8.43;3.37;;;;;;;11.36;100.00;102280.56;7396735;19;20742;-60
2022/08/06 05:38:10;;;;;;;3.83;1.90;;;;;;;11.60;100.00;102290.66;7388119;19;20434;-60
2022/08/06 05:40:41;;;;;;;2.03;1.63;;;;;;;11.80;100.00;102294.44;7393569;19;20440;-60
2022/08/06 05:43:28;;;;;;;5.00;2.03;;;;;;;11.98;100.00;102299.88;7387521;19;20441;-60
2022/08/06 05:46:20;;;;;;;2.60;1.83;;;;;;;12.17;100.00;102303.59;7396567;19;20920;-59
2022/08/06 05:48:58;;;;;;;32.13;20.50;;;;;;;13.05;100.00;102315.56;7386936;19;20963;-60
2022/08/06 05:51:36;;;;;;;8.30;4.60;;;;;;;13.15;100.00;102314.38;7395938;19;20391;-60
2022/08/06 05:54:18;;;;;;;8.27;2.93;;;;;;;12.78;100.00;102320.94;7388715;19;20425;-60
2022/08/06 05:56:49;;;;;;;5.83;3.10;;;;;;;12.78;100.00;102318.34;7395739;19;20387;-60
2022/08/06 05:59:28;;;;;;;14.00;7.53;;;;;;;13.05;100.00;102325.03;7386830;19;20420;-60
2022/08/06 06:02:18;;;;;;;3.20;1.80;;;;;;;13.02;100.00;102332.63;7390571;19;20728;-60
2022/08/06 06:04:49;;;;;;;3.63;1.50;;;;;;;12.77;100.00;102334.69;7395772;19;20406;-60
2022/08/06 06:07:39;;;;;;;4.80;1.90;;;;;;;12.74;100.00;102337.13;7388608;19;20424;-60
2022/08/06 06:10:29;;;;;;;3.30;1.20;;;;;;;12.74;100.00;102336.22;7393414;19;20409;-60
2022/08/06 06:13:02;;;;;;;2.53;1.30;;;;;;;12.83;100.00;102342.81;7387425;19;20993;-59
2022/08/06 06:16:02;;;;;;;2.30;1.00;;;;;;;13.00;100.00;102345.50;7395440;19;20408;-60
2022/08/06 06:18:42;;;;;;;2.40;1.40;;;;;;;13.08;100.00;102344.22;7386848;19;20418;-60
2022/08/06 06:21:20;;;;;;;8.90;1.70;;;;;;;13.01;100.00;102352.44;7392143;19;20389;-60
2022/08/06 06:24:07;;;;;;;2.53;1.63;;;;;;;12.87;100.00;102358.56;7388017;19;20421;-60
2022/08/06 06:26:42;;;;;;;3.50;1.30;;;;;;;12.87;100.00;102359.41;7395025;19;20390;-60
2022/08/06 06:29:17;;;;;;;2.87;1.50;;;;;;;12.89;100.00;102354.34;7386088;19;20461;-60
2022/08/06 06:32:13;;;;;;;2.10;1.70;;;;;;;13.03;100.00;102366.38;7387759;19;20388;-60
2022/08/06 06:35:04;;;;;;;3.10;1.47;;;;;;;13.24;100.00;102369.31;7394781;19;20403;-60
2022/08/06 06:37:42;;;;;;;2.83;1.20;;;;;;;13.30;100.00;102370.47;7387991;19;20398;-60
2022/08/06 06:40:27;;;;;;;2.30;1.47;;;;;;;13.29;100.00;102372.19;7392159;19;20459;-60
2022/08/06 06:43:02;;;;;;;2.23;1.30;;;;;;;13.39;100.00;102370.09;7387510;19;20485;-60
2022/08/06 06:45:36;;;;;;;2.50;1.53;;;;;;;13.48;100.00;102375.81;7396543;19;20402;-60
2022/08/06 06:48:35;;;;;;;3.07;1.30;;;;;;;13.56;100.00;102366.78;7386539;19;20426;-61
2022/08/06 06:51:08;;;;;;;3.87;1.33;;;;;;;13.69;100.00;102370.03;7394228;19;20401;-60
2022/08/06 06:53:56;;;;;;;8.40;2.13;;;;;;;13.73;100.00;102374.56;7387478;19;20509;-60
2022/08/06 06:56:39;;;;;;;3.00;1.50;;;;;;;13.81;100.00;102373.31;7393037;19;20409;-60
2022/08/06 06:59:13;;;;;;;35.97;17.60;;;;;;;13.94;100.00;102371.38;7385680;19;20763;-60
2022/08/06 07:01:47;;;;;;;3.00;1.60;;;;;;;14.03;100.00;102367.56;7392557;19;20382;-60
2022/08/06 07:04:26;;;;;;;7.87;2.97;;;;;;;14.13;100.00;102378.41;7387608;19;20450;-60
2022/08/06 07:07:00;;;;;;;8.83;1.73;;;;;;;14.14;100.00;102386.28;7393773;19;20477;-60
2022/08/06 07:09:38;;;;;;;14.57;4.90;;;;;;;14.26;100.00;102385.16;7391209;19;20423;-60
2022/08/06 07:12:22;;;;;;;2.10;1.30;;;;;;;14.45;100.00;102394.78;7387318;19;20479;-61
2022/08/06 07:14:55;;;;;;;24.70;9.20;;;;;;;14.52;100.00;102399.47;7393470;19;20380;-60
2022/08/06 07:17:31;;;;;;;4.00;1.87;;;;;;;14.73;100.00;102398.81;7386251;19;20426;-60
2022/08/06 07:20:29;;;;;;;3.47;1.70;;;;;;;14.76;100.00;102408.50;7390424;19;20424;-59
2022/08/06 07:23:01;;;;;;;14.43;5.10;;;;;;;14.87;100.00;102412.50;7385664;19;20490;-60
2022/08/06 07:25:51;;;;;;;4.03;1.43;;;;;;;14.89;100.00;102426.50;7393641;19;20379;-60
2022/08/06 07:28:25;;;;;;;18.07;8.40;;;;;;;14.97;100.00;102419.97;7384756;19;20732;-60
2022/08/06 07:30:58;;;;;;;7.20;1.80;;;;;;;14.81;100.00;102430.41;7396987;19;20392;-60
2022/08/06 07:33:37;;;;;;;5.83;2.07;;;;;;;15.10;100.00;102438.78;7387374;19;20509;-60
2022/08/06 07:36:30;;;;;;;5.20;1.53;;;;;;;15.28;100.00;102466.50;7400183;19;20384;-60
2022/08/06 07:39:10;;;;;;;20.77;4.47;;;;;;;15.24;100.00;102474.16;7391005;19;20435;-61
2022/08/06 07:41:44;;;;;;;6.37;2.10;;;;;;;15.17;100.00;102474.66;7398012;19;20394;-60
2022/08/06 07:44:37;;;;;;;15.57;4.70;;;;;;;15.18;100.00;102473.84;7398579;19;20422;-60
2022/08/06 07:47:28;;;;;;;5.07;0.93;;;;;;;14.87;100.00;102464.47;7393116;19;20757;-60
2022/08/06 07:50:16;;;;;;;19.40;5.53;;;;;;;14.90;100.00;102445.56;7397136;19;20957;-60
2022/08/06 07:52:56;;;;;;;23.90;9.53;;;;;;;14.67;100.00;102448.72;7392341;19;20430;-60
2022/08/06 07:55:27;;;;;;;25.13;7.70;;;;;;;14.74;100.00;102443.84;7399987;19;20459;-60
2022/08/06 07:58:10;;;;;;;6.83;1.60;;;;;;;15.11;100.00;102443.16;7393475;19;20430;-60
2022/08/06 08:00:41;;;;;;;6.60;2.10;;;;;;;15.30;100.00;102436.28;7396412;19;20444;-60
2022/08/06 08:06:22;;;;;;;4.93;1.30;;;;;;;15.48;100.00;102457.09;7399333;19;20733;-60
2022/08/06 08:08:56;;;;;;;4.60;0.90;;;;;;;15.58;100.00;102451.50;7389254;19;20433;-60
2022/08/06 08:11:26;;;;;;;2.30;1.47;;;;;;;15.66;100.00;102462.28;7397298;19;20737;-60
2022/08/06 08:14:21;;;;;;;16.83;6.80;;;;;;;15.48;100.00;102485.72;7393055;19;20423;-60
2022/08/06 08:16:52;;;;;;;6.77;2.37;;;;;;;15.67;100.00;102484.88;7397303;19;20421;-60
2022/08/06 08:19:27;;;;;;;20.87;7.77;;;;;;;15.75;100.00;102488.72;7393928;19;20418;-60
2022/08/06 08:22:07;;;;;;;13.50;5.73;;;;;;;15.78;100.00;102501.91;7390351;19;20394;-61
2022/08/06 08:24:40;;;;;;;9.07;4.03;;;;;;;15.96;100.00;102498.44;7398563;19;20733;-60
2022/08/06 08:27:21;;;;;;;3.60;1.73;;;;;;;16.02;100.00;102522.16;7391771;19;20438;-61
2022/08/06 08:30:06;;;;;;;4.40;1.20;;;;;;;16.22;100.00;102522.19;7396574;19;20443;-61
2022/08/06 08:32:44;;;;;;;7.70;1.77;;;;;;;16.14;100.00;102520.91;7390329;19;20490;-60
2022/08/06 08:35:15;;;;;;;7.03;2.77;;;;;;;16.26;100.00;102536.25;7398813;19;20391;-61
2022/08/06 08:37:45;;;;;;;6.53;2.27;;;;;;;16.35;100.00;102548.81;7391135;19;20841;-60
2022/08/06 08:40:21;;;;;;;33.83;16.73;;;;;;;16.43;100.00;102539.63;7395037;19;20782;-60
2022/08/06 08:42:55;;;;;;;19.13;9.37;;;;;;;16.43;100.00;102552.66;7391260;19;20492;-61
2022/08/06 08:45:27;;;;;;;26.90;11.07;;;;;;;16.36;100.00;102548.84;7399485;19;20401;-61
2022/08/06 08:48:05;;;;;;;29.63;9.83;;;;;;;16.54;100.00;102543.63;7390085;19;20415;-60
2022/08/06 08:50:36;;;;;;;39.37;10.50;;;;;;;16.50;100.00;102561.66;7395724;19;20425;-60
2022/08/06 08:53:09;;;;;;;19.70;7.47;;;;;;;16.65;100.00;102566.63;7392565;19;21465;-61
2022/08/06 08:55:42;;;;;;;25.63;8.80;;;;;;;16.76;100.00;102601.03;7397907;19;20384;-60
2022/08/06 08:58:36;;;;;;;21.77;8.53;;;;;;;16.95;100.00;102592.31;7390416;19;20436;-60
2022/08/06 09:01:26;;;;;;;21.10;8.53;;;;;;;16.94;100.00;102611.38;7396721;19;20402;-60
2022/08/06 09:04:15;;;;;;;3.27;0.87;;;;;;;17.04;100.00;102612.72;7392954;19;20440;-62
2022/08/06 09:06:47;;;;;;;18.50;6.17;;;;;;;17.23;100.00;102614.44;7397496;19;20414;-60
2022/08/06 09:09:20;;;;;;;46.43;13.77;;;;;;;17.17;100.00;102633.28;7387769;19;20446;-60
2022/08/06 09:12:03;;;;;;;7.20;1.30;;;;;;;17.11;100.00;102613.06;7388418;19;20402;-60
2022/08/06 09:14:53;;;;;;;22.60;8.33;;;;;;;17.23;100.00;102619.66;7397809;19;20387;-60
2022/08/06 09:17:25;;;;;;;4.07;1.77;;;;;;;17.44;100.00;102627.53;7390869;19;20840;-61
2022/08/06 09:20:15;;;;;;;2.60;0.80;;;;;;;17.46;100.00;102684.97;7395521;19;20423;-60
2022/08/06 09:22:50;;;;;;;2.73;0.70;;;;;;;17.53;100.00;102619.16;7389457;19;20420;-61
2022/08/06 09:25:38;;;;;;;10.20;2.90;;;;;;;17.66;100.00;102566.69;7397058;19;20385;-60
2022/08/06 09:28:34;;;;;;;71.80;35.80;;;;;;;17.50;100.00;102541.69;7387613;19;20416;-61
2022/08/06 09:31:07;;;;;;;21.50;8.63;;;;;;;17.13;100.00;102521.88;7396926;19;20515;-60
2022/08/06 09:33:56;;;;;;;8.63;2.57;;;;;;;17.13;100.00;102514.91;7390404;19;20452;-60
2022/08/06 09:36:47;;;;;;;9.30;1.73;;;;;;;17.33;100.00;102509.66;7393629;19;20385;-60
2022/08/06 09:39:33;;;;;;;5.20;2.30;;;;;;;17.43;100.00;102486.56;7380394;19;20424;-60
2022/08/06 09:42:40;;;;;;;2.33;0.77;;;;;;;17.49;100.00;102486.81;7385136;19;20417;-61
2022/08/06 09:45:16;;;;;;;4.33;1.07;;;;;;;17.38;100.00;102481.16;7394255;19;20748;-61
2022/08/06 09:47:47;;;;;;;7.73;2.67;;;;;;;17.11;100.00;102506.16;7386511;19;20428;-60
2022/08/06 09:50:39;;;;;;;8.10;2.17;;;;;;;16.93;100.00;102531.41;7391702;19;21419;-61
2022/08/06 09:53:13;;;;;;;2.90;1.00;;;;;;;16.74;100.00;102567.06;7386934;19;20415;-61
2022/08/06 09:55:49;;;;;;;2.87;0.80;;;;;;;16.51;100.00;102620.75;7394307;19;20472;-60
2022/08/06 09:58:34;;;;;;;10.73;1.30;;;;;;;16.51;100.00;102704.97;7386227;19;20429;-60
2022/08/06 10:01:20;;;;;;;3.60;0.90;;;;;;;16.58;100.00;102779.16;7394221;19;20613;-60
2022/08/06 10:03:52;;;;;;;3.40;1.23;;;;;;;16.62;100.00;102790.59;7387205;19;20416;-59
2022/08/06 10:06:37;;;;;;;9.93;1.73;;;;;;;16.71;100.00;102817.09;7392467;19;20400;-60
2022/08/06 10:09:10;;;;;;;4.50;1.37;;;;;;;16.93;100.00;102819.06;7385655;19;20413;-61
2022/08/06 10:12:00;;;;;;;5.23;1.13;;;;;;;16.90;100.00;102823.22;7385782;19;20809;-61
2022/08/06 10:14:31;;;;;;;17.23;5.53;;;;;;;16.97;100.00;102834.03;7398707;19;20414;-61
2022/08/06 10:17:13;;;;;;;11.57;5.17;;;;;;;17.10;100.00;102851.19;7391686;19;20390;-61
2022/08/06 10:19:44;;;;;;;5.07;1.83;;;;;;;17.09;100.00;102871.97;7394607;19;20950;-61
2022/08/06 10:22:22;;;;;;;5.30;1.93;;;;;;;16.86;100.00;102874.31;7387823;19;20481;-61
2022/08/06 10:24:57;;;;;;;2.57;1.13;;;;;;;16.87;100.00;102860.50;7397672;19;20410;-60
2022/08/06 10:27:31;;;;;;;4.70;1.50;;;;;;;17.18;100.00;102855.88;7387504;19;20420;-60
2022/08/06 10:30:09;;;;;;;7.90;3.33;;;;;;;17.12;100.00;102870.41;7396716;19;20451;-60
2022/08/06 10:32:48;;;;;;;34.17;17.60;;;;;;;17.12;100.00;102887.75;7386871;19;20451;-60
2022/08/06 10:35:19;;;;;;;20.07;7.70;;;;;;;17.03;100.00;102924.75;7394248;19;20398;-60
2022/08/06 10:37:56;;;;;;;9.60;3.23;;;;;;;16.97;100.00;102937.44;7387334;19;20413;-61
2022/08/06 10:40:26;;;;;;;7.13;3.90;;;;;;;16.93;100.00;102927.66;7393391;19;20432;-59
2022/08/06 10:43:00;;;;;;;17.23;8.30;;;;;;;17.07;100.00;102911.00;7385114;19;20794;-61
2022/08/06 10:45:33;;;;;;;28.20;13.13;;;;;;;17.51;100.00;102887.00;7394827;19;20393;-60
2022/08/06 10:48:20;;;;;;;88.20;35.60;;;;;;;17.98;100.00;102853.44;7385080;19;20424;-61
2022/08/06 10:51:11;;;;;;;24.37;10.03;;;;;;;18.21;100.00;102799.63;7394327;19;20392;-60
2022/08/06 10:53:43;;;;;;;8.37;3.47;;;;;;;18.47;100.00;102783.25;7388270;19;20456;-61
2022/08/06 10:56:36;;;;;;;11.37;4.03;;;;;;;18.70;100.00;102718.81;7392877;19;20449;-60
2022/08/06 10:59:15;;;;;;;14.23;4.20;;;;;;;18.31;100.00;102432.53;7384457;19;20413;-60
2022/08/06 11:01:52;;;;;;;6.10;2.53;;;;;;;18.54;100.00;101908.91;7393800;19;20380;-61
2022/08/06 11:04:36;;;;;;;10.90;5.20;;;;;;;18.61;100.00;101754.09;7385859;19;20421;-61
2022/08/06 11:07:41;;;;;;;11.60;5.33;;;;;;;18.58;100.00;101749.66;7385793;19;20410;-60
2022/08/06 11:10:43;;;;;;;6.30;3.30;;;;;;;18.86;100.00;101747.69;7390480;19;20423;-61
2022/08/06 11:13:21;;;;;;;9.87;5.13;;;;;;;19.02;100.00;101756.81;7384571;19;20407;-60
2022/08/06 11:15:51;;;;;;;6.33;3.43;;;;;;;18.78;100.00;101824.16;7393456;19;20953;-61
2022/08/06 11:18:21;;;;;;;5.70;3.27;;;;;;;18.55;100.00;101769.63;7385869;19;20434;-60
2022/08/06 11:21:01;;;;;;;9.30;3.90;;;;;;;18.35;100.00;101747.34;7397167;19;20390;-60
2022/08/06 11:23:33;;;;;;;8.17;3.83;;;;;;;18.10;100.00;101764.09;7384284;19;20492;-61
2022/08/06 11:26:37;;;;;;;6.40;3.30;;;;;;;18.36;100.00;101758.69;7393587;19;20395;-60
2022/08/06 11:29:15;;;;;;;8.00;3.43;;;;;;;18.76;100.00;101817.16;7384463;19;20415;-60
2022/08/06 11:31:49;;;;;;;7.20;3.10;;;;;;;18.97;100.00;101854.28;7392861;19;20398;-60
2022/08/06 11:34:43;;;;;;;7.67;3.60;;;;;;;19.01;100.00;101956.34;7392696;19;20426;-60
2022/08/06 11:37:47;;;;;;;5.67;3.30;;;;;;;19.03;100.00;101999.16;7385106;19;20404;-60
2022/08/06 11:41:01;;;;;;;8.47;3.87;;;;;;;19.10;100.00;102009.78;7390858;19;20403;-61
2022/08/06 11:43:50;;;;;;;8.03;4.00;;;;;;;19.34;100.00;102042.66;7382996;19;20422;-60
2022/08/06 11:46:33;;;;;;;4.87;3.10;;;;;;;19.41;100.00;102115.22;7392851;19;20403;-61
2022/08/06 11:49:15;;;;;;;5.33;2.80;;;;;;;19.47;100.00;102157.25;7384562;19;20747;-61
2022/08/06 11:51:49;;;;;;;5.40;3.40;;;;;;;19.38;100.00;102177.97;7392593;19;20391;-60
2022/08/06 11:54:39;;;;;;;5.57;3.37;;;;;;;19.20;100.00;102176.59;7391637;19;20487;-61
2022/08/06 11:57:24;;;;;;;7.60;3.30;;;;;;;19.09;100.00;102172.78;7384917;19;20383;-60
2022/08/06 12:00:16;;;;;;;6.53;3.80;;;;;;;19.30;100.00;102151.56;7389889;19;20399;-62
2022/08/06 12:02:54;;;;;;;6.83;3.60;;;;;;;19.43;100.00;102163.25;7384479;19;20414;-60
2022/08/06 12:05:44;;;;;;;5.73;3.27;;;;;;;19.39;100.00;102205.88;7391863;19;20387;-61
2022/08/06 12:08:28;;;;;;;8.97;3.10;;;;;;;19.43;100.00;102212.97;7383624;19;20415;-61
2022/08/06 12:11:35;;;;;;;4.70;2.97;;;;;;;19.75;100.00;102218.22;7391935;19;20451;-61
2022/08/06 12:14:08;;;;;;;6.20;3.60;;;;;;;19.95;100.00;102215.25;7383591;19;20427;-60
2022/08/06 12:16:58;;;;;;;5.03;3.07;;;;;;;20.01;100.00;102219.78;7391799;19;20395;-60
2022/08/06 12:19:32;;;;;;;7.03;3.80;;;;;;;20.06;100.00;102203.31;7391742;19;20469;-61